sensor_id;sensor_type;location;lat;lon;timestamp;P1;durP1;ratioP1;P2;durP2;ratioP2
27303;SDS011;14791;52.392;13.092;2023-08-21T00:00:21;2.87;;;2.77;;
27303;SDS011;14791;52.392;13.092;2023-08-21T00:02:49;2.90;;;2.80;;
27303;SDS011;14791;52.392;13.092;2023-08-21T00:05:18;3.00;;;2.90;;
27303;SDS011;14791;52.392;13.092;2023-08-21T00:07:47;3.27;;;3.15;;
27303;SDS011;14791;52.392;13.092;2023-08-21T00:10:18;3.00;;;2.90;;
27303;SDS011;14791;52.392;13.092;2023-08-21T00:12:46;3.40;;;3.30;;
27303;SDS011;14791;52.392;13.092;2023-08-21T00:15:15;2.70;;;2.60;;
27303;SDS011;14791;52.392;13.092;2023-08-21T00:17:44;2.98;;;2.87;;
27303;SDS011;14791;52.392;13.092;2023-08-21T00:20:13;3.22;;;3.12;;
27303;SDS011;14791;52.392;13.092;2023-08-21T00:22:42;3.45;;;3.35;;
27303;SDS011;14791;52.392;13.092;2023-08-21T00:25:11;3.37;;;3.27;;
27303;SDS011;14791;52.392;13.092;2023-08-21T00:27:40;3.37;;;3.22;;
27303;SDS011;14791;52.392;13.092;2023-08-21T00:30:09;3.37;;;3.27;;
27303;SDS011;14791;52.392;13.092;2023-08-21T00:32:42;3.40;;;3.30;;
27303;SDS011;14791;52.392;13.092;2023-08-21T00:35:11;3.55;;;3.40;;
27303;SDS011;14791;52.392;13.092;2023-08-21T00:37:40;3.80;;;3.70;;
27303;SDS011;14791;52.392;13.092;2023-08-21T00:40:09;3.67;;;3.58;;
27303;SDS011;14791;52.392;13.092;2023-08-21T00:42:39;3.77;;;3.67;;
27303;SDS011;14791;52.392;13.092;2023-08-21T00:45:08;3.77;;;3.67;;
27303;SDS011;14791;52.392;13.092;2023-08-21T00:47:38;3.20;;;3.10;;
27303;SDS011;14791;52.392;13.092;2023-08-21T00:50:07;3.52;;;3.42;;
27303;SDS011;14791;52.392;13.092;2023-08-21T00:52:38;3.67;;;3.58;;
27303;SDS011;14791;52.392;13.092;2023-08-21T00:55:09;4.28;;;4.08;;
27303;SDS011;14791;52.392;13.092;2023-08-21T00:57:39;4.05;;;3.95;;
27303;SDS011;14791;52.392;13.092;2023-08-21T01:00:09;4.10;;;3.90;;
27303;SDS011;14791;52.392;13.092;2023-08-21T01:02:39;3.90;;;3.77;;
27303;SDS011;14791;52.392;13.092;2023-08-21T01:05:08;3.85;;;3.75;;
27303;SDS011;14791;52.392;13.092;2023-08-21T01:07:41;4.08;;;3.98;;
27303;SDS011;14791;52.392;13.092;2023-08-21T01:10:11;4.08;;;3.87;;
27303;SDS011;14791;52.392;13.092;2023-08-21T01:12:46;4.70;;;4.60;;
27303;SDS011;14791;52.392;13.092;2023-08-21T01:15:20;4.40;;;4.30;;
27303;SDS011;14791;52.392;13.092;2023-08-21T01:17:50;4.45;;;4.35;;
27303;SDS011;14791;52.392;13.092;2023-08-21T01:20:22;4.35;;;4.25;;
27303;SDS011;14791;52.392;13.092;2023-08-21T01:22:52;4.45;;;4.35;;
27303;SDS011;14791;52.392;13.092;2023-08-21T01:25:22;4.30;;;4.20;;
27303;SDS011;14791;52.392;13.092;2023-08-21T01:27:51;3.92;;;3.83;;
27303;SDS011;14791;52.392;13.092;2023-08-21T01:30:20;4.20;;;3.98;;
27303;SDS011;14791;52.392;13.092;2023-08-21T01:33:05;4.20;;;4.05;;
27303;SDS011;14791;52.392;13.092;2023-08-21T01:35:38;4.15;;;3.95;;
27303;SDS011;14791;52.392;13.092;2023-08-21T01:38:07;3.92;;;3.83;;
27303;SDS011;14791;52.392;13.092;2023-08-21T01:40:36;4.50;;;4.30;;
27303;SDS011;14791;52.392;13.092;2023-08-21T01:43:05;4.05;;;3.95;;
27303;SDS011;14791;52.392;13.092;2023-08-21T01:45:34;4.45;;;4.35;;
27303;SDS011;14791;52.392;13.092;2023-08-21T01:48:03;4.53;;;4.33;;
27303;SDS011;14791;52.392;13.092;2023-08-21T01:50:32;3.95;;;3.85;;
27303;SDS011;14791;52.392;13.092;2023-08-21T01:53:01;4.17;;;4.05;;
27303;SDS011;14791;52.392;13.092;2023-08-21T01:55:30;4.47;;;4.28;;
27303;SDS011;14791;52.392;13.092;2023-08-21T01:57:59;3.87;;;3.77;;
27303;SDS011;14791;52.392;13.092;2023-08-21T02:00:28;4.35;;;4.15;;
27303;SDS011;14791;52.392;13.092;2023-08-21T02:02:57;4.08;;;3.98;;
27303;SDS011;14791;52.392;13.092;2023-08-21T02:05:26;4.65;;;4.45;;
27303;SDS011;14791;52.392;13.092;2023-08-21T02:07:54;4.35;;;4.15;;
27303;SDS011;14791;52.392;13.092;2023-08-21T02:10:23;4.17;;;4.05;;
27303;SDS011;14791;52.392;13.092;2023-08-21T02:12:52;4.35;;;4.25;;
27303;SDS011;14791;52.392;13.092;2023-08-21T02:15:21;4.15;;;4.05;;
27303;SDS011;14791;52.392;13.092;2023-08-21T02:17:50;4.75;;;4.55;;
27303;SDS011;14791;52.392;13.092;2023-08-21T02:20:19;4.45;;;4.35;;
27303;SDS011;14791;52.392;13.092;2023-08-21T02:22:48;4.67;;;4.47;;
27303;SDS011;14791;52.392;13.092;2023-08-21T02:25:17;4.78;;;4.47;;
27303;SDS011;14791;52.392;13.092;2023-08-21T02:27:47;4.92;;;4.65;;
27303;SDS011;14791;52.392;13.092;2023-08-21T02:30:16;3.87;;;3.77;;
27303;SDS011;14791;52.392;13.092;2023-08-21T02:32:46;4.17;;;4.08;;
27303;SDS011;14791;52.392;13.092;2023-08-21T02:35:15;4.30;;;4.20;;
27303;SDS011;14791;52.392;13.092;2023-08-21T02:37:44;4.40;;;4.30;;
27303;SDS011;14791;52.392;13.092;2023-08-21T02:40:13;4.95;;;4.75;;
27303;SDS011;14791;52.392;13.092;2023-08-21T02:42:42;4.35;;;4.25;;
27303;SDS011;14791;52.392;13.092;2023-08-21T02:45:11;4.67;;;4.47;;
27303;SDS011;14791;52.392;13.092;2023-08-21T02:47:40;4.72;;;4.55;;
27303;SDS011;14791;52.392;13.092;2023-08-21T02:50:10;4.90;;;4.75;;
27303;SDS011;14791;52.392;13.092;2023-08-21T02:52:39;4.97;;;4.78;;
27303;SDS011;14791;52.392;13.092;2023-08-21T02:55:08;5.50;;;5.25;;
27303;SDS011;14791;52.392;13.092;2023-08-21T02:57:37;4.78;;;4.58;;
27303;SDS011;14791;52.392;13.092;2023-08-21T03:00:06;4.40;;;4.22;;
27303;SDS011;14791;52.392;13.092;2023-08-21T03:02:36;5.08;;;4.90;;
27303;SDS011;14791;52.392;13.092;2023-08-21T03:05:05;4.58;;;4.47;;
27303;SDS011;14791;52.392;13.092;2023-08-21T03:07:36;5.05;;;4.80;;
27303;SDS011;14791;52.392;13.092;2023-08-21T03:10:06;5.35;;;5.03;;
27303;SDS011;14791;52.392;13.092;2023-08-21T03:12:35;5.12;;;4.92;;
27303;SDS011;14791;52.392;13.092;2023-08-21T03:15:04;4.72;;;4.62;;
27303;SDS011;14791;52.392;13.092;2023-08-21T03:17:34;5.00;;;4.78;;
27303;SDS011;14791;52.392;13.092;2023-08-21T03:20:03;4.45;;;4.25;;
27303;SDS011;14791;52.392;13.092;2023-08-21T03:22:33;4.22;;;4.12;;
27303;SDS011;14791;52.392;13.092;2023-08-21T03:25:02;5.08;;;4.87;;
27303;SDS011;14791;52.392;13.092;2023-08-21T03:27:31;4.80;;;4.60;;
27303;SDS011;14791;52.392;13.092;2023-08-21T03:30:00;5.10;;;5.00;;
27303;SDS011;14791;52.392;13.092;2023-08-21T03:32:29;4.92;;;4.80;;
27303;SDS011;14791;52.392;13.092;2023-08-21T03:34:58;4.97;;;4.83;;
27303;SDS011;14791;52.392;13.092;2023-08-21T03:37:27;5.53;;;5.33;;
27303;SDS011;14791;52.392;13.092;2023-08-21T03:39:56;5.42;;;5.00;;
27303;SDS011;14791;52.392;13.092;2023-08-21T03:42:25;5.33;;;5.12;;
27303;SDS011;14791;52.392;13.092;2023-08-21T03:44:54;4.95;;;4.85;;
27303;SDS011;14791;52.392;13.092;2023-08-21T03:47:24;5.08;;;4.87;;
27303;SDS011;14791;52.392;13.092;2023-08-21T03:49:54;4.67;;;4.58;;
27303;SDS011;14791;52.392;13.092;2023-08-21T03:52:24;5.42;;;5.22;;
27303;SDS011;14791;52.392;13.092;2023-08-21T03:54:53;5.45;;;5.25;;
27303;SDS011;14791;52.392;13.092;2023-08-21T03:57:22;4.97;;;4.78;;
27303;SDS011;14791;52.392;13.092;2023-08-21T03:59:51;4.72;;;4.42;;
27303;SDS011;14791;52.392;13.092;2023-08-21T04:02:20;4.53;;;4.42;;
27303;SDS011;14791;52.392;13.092;2023-08-21T04:04:49;4.47;;;4.37;;
27303;SDS011;14791;52.392;13.092;2023-08-21T04:07:18;5.37;;;5.17;;
27303;SDS011;14791;52.392;13.092;2023-08-21T04:09:47;4.47;;;4.37;;
27303;SDS011;14791;52.392;13.092;2023-08-21T04:12:16;4.90;;;4.70;;
27303;SDS011;14791;52.392;13.092;2023-08-21T04:14:45;4.37;;;4.28;;
27303;SDS011;14791;52.392;13.092;2023-08-21T04:17:14;4.40;;;4.28;;
27303;SDS011;14791;52.392;13.092;2023-08-21T04:19:44;4.50;;;4.30;;
27303;SDS011;14791;52.392;13.092;2023-08-21T04:22:13;4.62;;;4.42;;
27303;SDS011;14791;52.392;13.092;2023-08-21T04:24:42;4.72;;;4.53;;
27303;SDS011;14791;52.392;13.092;2023-08-21T04:27:11;5.03;;;4.72;;
27303;SDS011;14791;52.392;13.092;2023-08-21T04:29:40;5.05;;;4.85;;
27303;SDS011;14791;52.392;13.092;2023-08-21T04:32:09;4.78;;;4.65;;
27303;SDS011;14791;52.392;13.092;2023-08-21T04:34:39;4.55;;;4.45;;
27303;SDS011;14791;52.392;13.092;2023-08-21T04:37:08;4.72;;;4.53;;
27303;SDS011;14791;52.392;13.092;2023-08-21T04:39:37;4.65;;;4.45;;
27303;SDS011;14791;52.392;13.092;2023-08-21T04:42:07;4.70;;;4.60;;
27303;SDS011;14791;52.392;13.092;2023-08-21T04:44:37;4.83;;;4.62;;
27303;SDS011;14791;52.392;13.092;2023-08-21T04:47:25;5.55;;;5.15;;
27303;SDS011;14791;52.392;13.092;2023-08-21T04:49:56;4.87;;;4.65;;
27303;SDS011;14791;52.392;13.092;2023-08-21T04:52:27;4.72;;;4.53;;
27303;SDS011;14791;52.392;13.092;2023-08-21T04:54:56;5.05;;;4.85;;
27303;SDS011;14791;52.392;13.092;2023-08-21T04:57:27;5.80;;;5.30;;
27303;SDS011;14791;52.392;13.092;2023-08-21T04:59:57;5.20;;;4.95;;
27303;SDS011;14791;52.392;13.092;2023-08-21T05:02:27;5.10;;;4.72;;
27303;SDS011;14791;52.392;13.092;2023-08-21T05:04:56;5.12;;;4.83;;
27303;SDS011;14791;52.392;13.092;2023-08-21T05:07:25;5.03;;;4.85;;
27303;SDS011;14791;52.392;13.092;2023-08-21T05:09:54;5.15;;;4.78;;
27303;SDS011;14791;52.392;13.092;2023-08-21T05:12:25;5.00;;;4.70;;
27303;SDS011;14791;52.392;13.092;2023-08-21T05:14:54;4.20;;;4.10;;
27303;SDS011;14791;52.392;13.092;2023-08-21T05:17:24;6.05;;;5.05;;
27303;SDS011;14791;52.392;13.092;2023-08-21T05:19:53;4.35;;;4.25;;
27303;SDS011;14791;52.392;13.092;2023-08-21T05:22:22;4.90;;;4.80;;
27303;SDS011;14791;52.392;13.092;2023-08-21T05:24:52;5.00;;;4.62;;
27303;SDS011;14791;52.392;13.092;2023-08-21T05:27:21;4.62;;;4.53;;
27303;SDS011;14791;52.392;13.092;2023-08-21T05:29:50;5.03;;;4.78;;
27303;SDS011;14791;52.392;13.092;2023-08-21T05:32:19;5.00;;;4.80;;
27303;SDS011;14791;52.392;13.092;2023-08-21T05:34:50;4.85;;;4.72;;
27303;SDS011;14791;52.392;13.092;2023-08-21T05:37:18;4.00;;;3.80;;
27303;SDS011;14791;52.392;13.092;2023-08-21T05:39:48;5.05;;;4.85;;
27303;SDS011;14791;52.392;13.092;2023-08-21T05:42:17;4.87;;;4.67;;
27303;SDS011;14791;52.392;13.092;2023-08-21T05:44:47;4.40;;;4.30;;
27303;SDS011;14791;52.392;13.092;2023-08-21T05:47:16;5.03;;;4.72;;
27303;SDS011;14791;52.392;13.092;2023-08-21T05:49:45;5.10;;;4.90;;
27303;SDS011;14791;52.392;13.092;2023-08-21T05:52:15;5.78;;;5.53;;
27303;SDS011;14791;52.392;13.092;2023-08-21T05:54:44;4.85;;;4.75;;
27303;SDS011;14791;52.392;13.092;2023-08-21T05:57:13;4.83;;;4.60;;
27303;SDS011;14791;52.392;13.092;2023-08-21T05:59:46;5.45;;;5.25;;
27303;SDS011;14791;52.392;13.092;2023-08-21T06:02:15;5.12;;;4.92;;
27303;SDS011;14791;52.392;13.092;2023-08-21T06:04:45;5.22;;;5.03;;
27303;SDS011;14791;52.392;13.092;2023-08-21T06:07:15;5.37;;;5.25;;
27303;SDS011;14791;52.392;13.092;2023-08-21T06:09:44;4.58;;;4.47;;
27303;SDS011;14791;52.392;13.092;2023-08-21T06:12:13;5.20;;;5.00;;
27303;SDS011;14791;52.392;13.092;2023-08-21T06:14:42;5.12;;;4.83;;
27303;SDS011;14791;52.392;13.092;2023-08-21T06:17:12;5.47;;;5.17;;
27303;SDS011;14791;52.392;13.092;2023-08-21T06:19:41;4.75;;;4.55;;
27303;SDS011;14791;52.392;13.092;2023-08-21T06:22:10;4.17;;;4.03;;
27303;SDS011;14791;52.392;13.092;2023-08-21T06:24:39;4.90;;;4.80;;
27303;SDS011;14791;52.392;13.092;2023-08-21T06:27:10;5.12;;;4.92;;
27303;SDS011;14791;52.392;13.092;2023-08-21T06:29:39;5.20;;;5.00;;
27303;SDS011;14791;52.392;13.092;2023-08-21T06:32:08;4.72;;;4.62;;
27303;SDS011;14791;52.392;13.092;2023-08-21T06:34:37;4.67;;;4.47;;
27303;SDS011;14791;52.392;13.092;2023-08-21T06:37:06;4.92;;;4.72;;
27303;SDS011;14791;52.392;13.092;2023-08-21T06:39:36;4.55;;;4.30;;
27303;SDS011;14791;52.392;13.092;2023-08-21T06:42:05;4.50;;;4.30;;
27303;SDS011;14791;52.392;13.092;2023-08-21T06:44:35;4.85;;;4.65;;
27303;SDS011;14791;52.392;13.092;2023-08-21T06:47:04;4.00;;;3.90;;
27303;SDS011;14791;52.392;13.092;2023-08-21T06:49:33;4.45;;;4.25;;
27303;SDS011;14791;52.392;13.092;2023-08-21T06:52:02;4.55;;;4.40;;
27303;SDS011;14791;52.392;13.092;2023-08-21T06:54:32;3.98;;;3.87;;
27303;SDS011;14791;52.392;13.092;2023-08-21T06:57:01;3.77;;;3.58;;
27303;SDS011;14791;52.392;13.092;2023-08-21T06:59:30;4.05;;;3.75;;
27303;SDS011;14791;52.392;13.092;2023-08-21T07:02:00;3.65;;;3.45;;
27303;SDS011;14791;52.392;13.092;2023-08-21T07:04:30;3.22;;;3.12;;
27303;SDS011;14791;52.392;13.092;2023-08-21T07:07:00;2.87;;;2.77;;
27303;SDS011;14791;52.392;13.092;2023-08-21T07:09:29;3.22;;;3.12;;
27303;SDS011;14791;52.392;13.092;2023-08-21T07:11:58;2.85;;;2.80;;
27303;SDS011;14791;52.392;13.092;2023-08-21T07:14:28;3.22;;;3.02;;
27303;SDS011;14791;52.392;13.092;2023-08-21T07:16:57;3.00;;;2.90;;
27303;SDS011;14791;52.392;13.092;2023-08-21T07:19:26;2.75;;;2.65;;
27303;SDS011;14791;52.392;13.092;2023-08-21T07:21:55;2.90;;;2.80;;
27303;SDS011;14791;52.392;13.092;2023-08-21T07:24:24;2.27;;;2.17;;
27303;SDS011;14791;52.392;13.092;2023-08-21T07:26:53;2.70;;;2.60;;
27303;SDS011;14791;52.392;13.092;2023-08-21T07:29:22;2.25;;;2.15;;
27303;SDS011;14791;52.392;13.092;2023-08-21T07:31:51;2.40;;;2.30;;
27303;SDS011;14791;52.392;13.092;2023-08-21T07:34:19;2.35;;;2.25;;
27303;SDS011;14791;52.392;13.092;2023-08-21T07:36:48;3.05;;;2.10;;
27303;SDS011;14791;52.392;13.092;2023-08-21T07:39:17;2.20;;;2.17;;
27303;SDS011;14791;52.392;13.092;2023-08-21T07:41:46;2.33;;;2.22;;
27303;SDS011;14791;52.392;13.092;2023-08-21T07:44:15;2.83;;;2.72;;
27303;SDS011;14791;52.392;13.092;2023-08-21T07:46:44;2.35;;;2.25;;
27303;SDS011;14791;52.392;13.092;2023-08-21T07:49:13;2.80;;;2.70;;
27303;SDS011;14791;52.392;13.092;2023-08-21T07:51:42;2.10;;;1.95;;
27303;SDS011;14791;52.392;13.092;2023-08-21T07:54:11;2.52;;;2.42;;
27303;SDS011;14791;52.392;13.092;2023-08-21T07:56:40;2.02;;;2.00;;
27303;SDS011;14791;52.392;13.092;2023-08-21T07:59:09;1.85;;;1.75;;
27303;SDS011;14791;52.392;13.092;2023-08-21T08:01:38;5.87;;;2.00;;
27303;SDS011;14791;52.392;13.092;2023-08-21T08:04:07;2.62;;;1.95;;
27303;SDS011;14791;52.392;13.092;2023-08-21T08:06:37;1.40;;;1.40;;
27303;SDS011;14791;52.392;13.092;2023-08-21T08:09:06;1.75;;;1.65;;
27303;SDS011;14791;52.392;13.092;2023-08-21T08:11:35;1.72;;;1.60;;
27303;SDS011;14791;52.392;13.092;2023-08-21T08:14:04;1.60;;;1.50;;
27303;SDS011;14791;52.392;13.092;2023-08-21T08:16:33;1.30;;;1.30;;
27303;SDS011;14791;52.392;13.092;2023-08-21T08:19:02;1.57;;;1.57;;
27303;SDS011;14791;52.392;13.092;2023-08-21T08:21:31;5.35;;;1.95;;
27303;SDS011;14791;52.392;13.092;2023-08-21T08:24:00;1.52;;;1.42;;
27303;SDS011;14791;52.392;13.092;2023-08-21T08:26:29;2.87;;;1.45;;
27303;SDS011;14791;52.392;13.092;2023-08-21T08:28:58;1.57;;;1.57;;
27303;SDS011;14791;52.392;13.092;2023-08-21T08:31:27;1.57;;;1.52;;
27303;SDS011;14791;52.392;13.092;2023-08-21T08:33:56;1.40;;;1.40;;
27303;SDS011;14791;52.392;13.092;2023-08-21T08:36:25;1.20;;;1.20;;
27303;SDS011;14791;52.392;13.092;2023-08-21T08:38:54;1.25;;;1.25;;
27303;SDS011;14791;52.392;13.092;2023-08-21T08:41:43;1.10;;;1.10;;
27303;SDS011;14791;52.392;13.092;2023-08-21T08:44:13;1.30;;;0.88;;
27303;SDS011;14791;52.392;13.092;2023-08-21T08:46:44;1.12;;;1.12;;
27303;SDS011;14791;52.392;13.092;2023-08-21T08:49:13;1.20;;;1.10;;
27303;SDS011;14791;52.392;13.092;2023-08-21T08:51:42;1.30;;;1.20;;
27303;SDS011;14791;52.392;13.092;2023-08-21T08:54:12;1.15;;;1.15;;
27303;SDS011;14791;52.392;13.092;2023-08-21T08:56:41;1.00;;;1.00;;
27303;SDS011;14791;52.392;13.092;2023-08-21T08:59:11;0.88;;;0.88;;
27303;SDS011;14791;52.392;13.092;2023-08-21T09:01:41;0.85;;;0.85;;
27303;SDS011;14791;52.392;13.092;2023-08-21T09:04:11;1.20;;;1.17;;
27303;SDS011;14791;52.392;13.092;2023-08-21T09:06:40;0.72;;;0.72;;
27303;SDS011;14791;52.392;13.092;2023-08-21T09:09:09;0.70;;;0.70;;
27303;SDS011;14791;52.392;13.092;2023-08-21T09:11:43;0.50;;;0.50;;
27303;SDS011;14791;52.392;13.092;2023-08-21T09:14:14;0.88;;;0.88;;
27303;SDS011;14791;52.392;13.092;2023-08-21T09:16:58;0.70;;;0.70;;
27303;SDS011;14791;52.392;13.092;2023-08-21T09:19:20;1.17;;;1.07;;
27303;SDS011;14791;52.392;13.092;2023-08-21T09:21:49;0.78;;;0.78;;
27303;SDS011;14791;52.392;13.092;2023-08-21T09:24:17;0.98;;;0.98;;
27303;SDS011;14791;52.392;13.092;2023-08-21T09:26:46;0.60;;;0.60;;
27303;SDS011;14791;52.392;13.092;2023-08-21T09:29:16;0.68;;;0.68;;
27303;SDS011;14791;52.392;13.092;2023-08-21T09:31:45;1.00;;;1.00;;
27303;SDS011;14791;52.392;13.092;2023-08-21T09:34:14;0.90;;;0.90;;
27303;SDS011;14791;52.392;13.092;2023-08-21T09:36:45;1.87;;;0.53;;
27303;SDS011;14791;52.392;13.092;2023-08-21T09:39:15;0.90;;;0.90;;
27303;SDS011;14791;52.392;13.092;2023-08-21T09:41:54;0.82;;;0.82;;
27303;SDS011;14791;52.392;13.092;2023-08-21T09:44:16;0.70;;;0.70;;
27303;SDS011;14791;52.392;13.092;2023-08-21T09:46:46;0.70;;;0.70;;
27303;SDS011;14791;52.392;13.092;2023-08-21T09:49:18;0.60;;;0.60;;
27303;SDS011;14791;52.392;13.092;2023-08-21T09:51:49;0.50;;;0.50;;
27303;SDS011;14791;52.392;13.092;2023-08-21T09:54:18;0.57;;;0.57;;
27303;SDS011;14791;52.392;13.092;2023-08-21T09:56:48;0.93;;;0.93;;
27303;SDS011;14791;52.392;13.092;2023-08-21T09:59:18;0.70;;;0.70;;
27303;SDS011;14791;52.392;13.092;2023-08-21T10:01:47;1.07;;;1.07;;
27303;SDS011;14791;52.392;13.092;2023-08-21T10:04:18;0.90;;;0.90;;
27303;SDS011;14791;52.392;13.092;2023-08-21T10:06:50;0.70;;;0.70;;
27303;SDS011;14791;52.392;13.092;2023-08-21T10:09:22;1.00;;;1.00;;
27303;SDS011;14791;52.392;13.092;2023-08-21T10:11:52;0.80;;;0.80;;
27303;SDS011;14791;52.392;13.092;2023-08-21T10:14:22;0.68;;;0.68;;
27303;SDS011;14791;52.392;13.092;2023-08-21T10:16:52;0.70;;;0.70;;
27303;SDS011;14791;52.392;13.092;2023-08-21T10:19:22;0.75;;;0.75;;
27303;SDS011;14791;52.392;13.092;2023-08-21T10:21:51;1.00;;;1.00;;
27303;SDS011;14791;52.392;13.092;2023-08-21T10:24:26;0.70;;;0.70;;
27303;SDS011;14791;52.392;13.092;2023-08-21T10:26:58;0.57;;;0.57;;
27303;SDS011;14791;52.392;13.092;2023-08-21T10:29:27;0.82;;;0.72;;
27303;SDS011;14791;52.392;13.092;2023-08-21T10:32:01;0.78;;;0.78;;
27303;SDS011;14791;52.392;13.092;2023-08-21T10:34:32;0.70;;;0.70;;
27303;SDS011;14791;52.392;13.092;2023-08-21T10:37:05;0.75;;;0.65;;
27303;SDS011;14791;52.392;13.092;2023-08-21T10:39:37;3.90;;;1.00;;
27303;SDS011;14791;52.392;13.092;2023-08-21T10:42:07;0.90;;;0.90;;
27303;SDS011;14791;52.392;13.092;2023-08-21T10:50:16;0.90;;;0.90;;
27303;SDS011;14791;52.392;13.092;2023-08-21T10:52:39;0.68;;;0.68;;
27303;SDS011;14791;52.392;13.092;2023-08-21T10:55:11;1.42;;;1.25;;
27303;SDS011;14791;52.392;13.092;2023-08-21T10:57:42;0.90;;;0.90;;
27303;SDS011;14791;52.392;13.092;2023-08-21T11:00:18;0.90;;;0.88;;
27303;SDS011;14791;52.392;13.092;2023-08-21T11:02:48;0.70;;;0.70;;
27303;SDS011;14791;52.392;13.092;2023-08-21T11:05:18;1.00;;;1.00;;
27303;SDS011;14791;52.392;13.092;2023-08-21T11:07:47;0.90;;;0.90;;
27303;SDS011;14791;52.392;13.092;2023-08-21T11:10:18;0.90;;;0.90;;
27303;SDS011;14791;52.392;13.092;2023-08-21T11:12:55;1.02;;;1.02;;
27303;SDS011;14791;52.392;13.092;2023-08-21T11:15:27;0.70;;;0.70;;
27303;SDS011;14791;52.392;13.092;2023-08-21T11:17:57;0.90;;;0.70;;
27303;SDS011;14791;52.392;13.092;2023-08-21T11:20:38;1.30;;;0.62;;
27303;SDS011;14791;52.392;13.092;2023-08-21T11:23:08;0.57;;;0.57;;
27303;SDS011;14791;52.392;13.092;2023-08-21T11:25:40;0.62;;;0.62;;
27303;SDS011;14791;52.392;13.092;2023-08-21T11:28:09;0.60;;;0.60;;
27303;SDS011;14791;52.392;13.092;2023-08-21T11:30:37;0.65;;;0.65;;
27303;SDS011;14791;52.392;13.092;2023-08-21T11:33:10;0.90;;;0.90;;
27303;SDS011;14791;52.392;13.092;2023-08-21T11:35:41;1.42;;;1.00;;
27303;SDS011;14791;52.392;13.092;2023-08-21T11:38:14;0.93;;;0.60;;
27303;SDS011;14791;52.392;13.092;2023-08-21T11:40:56;0.82;;;0.82;;
27303;SDS011;14791;52.392;13.092;2023-08-21T11:43:33;0.50;;;0.50;;
27303;SDS011;14791;52.392;13.092;2023-08-21T11:46:09;0.80;;;0.80;;
27303;SDS011;14791;52.392;13.092;2023-08-21T11:48:39;0.70;;;0.70;;
27303;SDS011;14791;52.392;13.092;2023-08-21T11:51:09;0.72;;;0.72;;
27303;SDS011;14791;52.392;13.092;2023-08-21T11:53:39;0.60;;;0.60;;
27303;SDS011;14791;52.392;13.092;2023-08-21T11:56:10;3.02;;;1.05;;
27303;SDS011;14791;52.392;13.092;2023-08-21T11:58:42;1.42;;;0.70;;
27303;SDS011;14791;52.392;13.092;2023-08-21T12:01:17;0.70;;;0.70;;
27303;SDS011;14791;52.392;13.092;2023-08-21T12:03:47;0.78;;;0.78;;
27303;SDS011;14791;52.392;13.092;2023-08-21T12:06:17;0.55;;;0.55;;
27303;SDS011;14791;52.392;13.092;2023-08-21T12:08:46;0.80;;;0.80;;
27303;SDS011;14791;52.392;13.092;2023-08-21T12:11:15;0.90;;;0.90;;
27303;SDS011;14791;52.392;13.092;2023-08-21T12:13:44;0.90;;;0.90;;
27303;SDS011;14791;52.392;13.092;2023-08-21T12:16:13;0.82;;;0.80;;
27303;SDS011;14791;52.392;13.092;2023-08-21T12:18:42;1.02;;;1.00;;
27303;SDS011;14791;52.392;13.092;2023-08-21T12:21:11;0.82;;;0.70;;
27303;SDS011;14791;52.392;13.092;2023-08-21T12:23:39;0.90;;;0.90;;
27303;SDS011;14791;52.392;13.092;2023-08-21T12:26:08;0.80;;;0.80;;
27303;SDS011;14791;52.392;13.092;2023-08-21T12:28:37;0.88;;;0.88;;
27303;SDS011;14791;52.392;13.092;2023-08-21T12:31:06;0.80;;;0.80;;
27303;SDS011;14791;52.392;13.092;2023-08-21T12:33:35;0.90;;;0.90;;
27303;SDS011;14791;52.392;13.092;2023-08-21T12:36:04;0.95;;;0.78;;
27303;SDS011;14791;52.392;13.092;2023-08-21T12:38:40;0.82;;;0.82;;
27303;SDS011;14791;52.392;13.092;2023-08-21T12:41:09;1.25;;;1.00;;
27303;SDS011;14791;52.392;13.092;2023-08-21T12:43:38;0.85;;;0.82;;
27303;SDS011;14791;52.392;13.092;2023-08-21T12:46:06;1.02;;;1.02;;
27303;SDS011;14791;52.392;13.092;2023-08-21T12:48:35;1.47;;;0.70;;
27303;SDS011;14791;52.392;13.092;2023-08-21T12:51:04;0.90;;;0.90;;
27303;SDS011;14791;52.392;13.092;2023-08-21T12:53:34;1.20;;;1.20;;
27303;SDS011;14791;52.392;13.092;2023-08-21T12:56:03;0.88;;;0.88;;
27303;SDS011;14791;52.392;13.092;2023-08-21T12:58:32;0.60;;;0.60;;
27303;SDS011;14791;52.392;13.092;2023-08-21T13:01:01;0.80;;;0.80;;
27303;SDS011;14791;52.392;13.092;2023-08-21T13:03:30;0.72;;;0.72;;
27303;SDS011;14791;52.392;13.092;2023-08-21T13:06:01;0.70;;;0.70;;
27303;SDS011;14791;52.392;13.092;2023-08-21T13:08:30;0.82;;;0.82;;
27303;SDS011;14791;52.392;13.092;2023-08-21T13:10:59;0.72;;;0.72;;
27303;SDS011;14791;52.392;13.092;2023-08-21T13:13:30;0.85;;;0.85;;
27303;SDS011;14791;52.392;13.092;2023-08-21T13:15:58;0.80;;;0.80;;
27303;SDS011;14791;52.392;13.092;2023-08-21T13:18:27;0.70;;;0.70;;
27303;SDS011;14791;52.392;13.092;2023-08-21T13:20:57;0.82;;;0.82;;
27303;SDS011;14791;52.392;13.092;2023-08-21T13:23:28;0.68;;;0.68;;
27303;SDS011;14791;52.392;13.092;2023-08-21T13:25:57;0.95;;;0.70;;
27303;SDS011;14791;52.392;13.092;2023-08-21T13:28:26;0.80;;;0.80;;
27303;SDS011;14791;52.392;13.092;2023-08-21T13:30:55;0.82;;;0.82;;
27303;SDS011;14791;52.392;13.092;2023-08-21T13:33:25;3.02;;;0.85;;
27303;SDS011;14791;52.392;13.092;2023-08-21T13:35:54;0.72;;;0.72;;
27303;SDS011;14791;52.392;13.092;2023-08-21T13:38:22;0.60;;;0.60;;
27303;SDS011;14791;52.392;13.092;2023-08-21T13:40:51;0.70;;;0.70;;
27303;SDS011;14791;52.392;13.092;2023-08-21T13:43:21;0.90;;;0.90;;
27303;SDS011;14791;52.392;13.092;2023-08-21T13:45:49;0.65;;;0.65;;
27303;SDS011;14791;52.392;13.092;2023-08-21T13:48:18;0.95;;;0.95;;
27303;SDS011;14791;52.392;13.092;2023-08-21T13:50:47;0.90;;;0.90;;
27303;SDS011;14791;52.392;13.092;2023-08-21T13:53:16;0.75;;;0.75;;
27303;SDS011;14791;52.392;13.092;2023-08-21T13:55:45;0.95;;;0.95;;
27303;SDS011;14791;52.392;13.092;2023-08-21T13:58:14;0.93;;;0.93;;
27303;SDS011;14791;52.392;13.092;2023-08-21T14:00:43;0.90;;;0.90;;
27303;SDS011;14791;52.392;13.092;2023-08-21T14:03:11;0.93;;;0.93;;
27303;SDS011;14791;52.392;13.092;2023-08-21T14:05:42;0.78;;;0.78;;
27303;SDS011;14791;52.392;13.092;2023-08-21T14:08:10;1.17;;;1.17;;
27303;SDS011;14791;52.392;13.092;2023-08-21T14:10:39;1.05;;;1.05;;
27303;SDS011;14791;52.392;13.092;2023-08-21T14:13:08;1.00;;;1.00;;
27303;SDS011;14791;52.392;13.092;2023-08-21T14:15:38;0.80;;;0.80;;
27303;SDS011;14791;52.392;13.092;2023-08-21T14:18:07;1.10;;;1.10;;
27303;SDS011;14791;52.392;13.092;2023-08-21T14:20:36;1.00;;;1.00;;
27303;SDS011;14791;52.392;13.092;2023-08-21T14:23:05;0.68;;;0.68;;
27303;SDS011;14791;52.392;13.092;2023-08-21T14:25:34;1.67;;;0.80;;
27303;SDS011;14791;52.392;13.092;2023-08-21T14:28:04;1.00;;;0.80;;
27303;SDS011;14791;52.392;13.092;2023-08-21T14:30:33;1.05;;;1.05;;
27303;SDS011;14791;52.392;13.092;2023-08-21T14:33:02;0.90;;;0.90;;
27303;SDS011;14791;52.392;13.092;2023-08-21T14:35:32;1.27;;;1.17;;
27303;SDS011;14791;52.392;13.092;2023-08-21T14:38:00;1.10;;;1.10;;
27303;SDS011;14791;52.392;13.092;2023-08-21T14:40:30;1.10;;;1.10;;
27303;SDS011;14791;52.392;13.092;2023-08-21T14:42:58;0.80;;;0.80;;
27303;SDS011;14791;52.392;13.092;2023-08-21T14:45:27;1.00;;;1.00;;
27303;SDS011;14791;52.392;13.092;2023-08-21T14:47:56;1.57;;;0.80;;
27303;SDS011;14791;52.392;13.092;2023-08-21T14:50:25;0.90;;;0.90;;
27303;SDS011;14791;52.392;13.092;2023-08-21T14:52:54;1.42;;;1.07;;